Time;durP1;ratioP1;P1;durP2;ratioP2;P2;SDS_P1;SDS_P2;PMS_P1;PMS_P2;Temp;Humidity;BMP_temperature;BMP_pressure;BME280_temperature;BME280_humidity;BME280_pressure;Samples;Min_cycle;Max_cycle;Signal;HPM_P1;HPM_P2
2022/08/16 00:00:43;;;;;;;28.33;10.85;;;;;;;16.04;100.00;100601.19;5203171;28;20021;-71
2022/08/16 00:03:13;;;;;;;14.35;9.27;;;;;;;16.02;100.00;100608.69;5196640;28;20022;-71
2022/08/16 00:05:44;;;;;;;16.98;10.55;;;;;;;16.02;100.00;100606.81;5195708;28;20365;-72
2022/08/16 00:08:15;;;;;;;11.50;7.63;;;;;;;16.02;100.00;100612.22;5193819;28;20037;-72
2022/08/16 00:10:46;;;;;;;17.17;10.77;;;;;;;15.98;100.00;100613.69;5203556;28;20565;-72
2022/08/16 00:13:16;;;;;;;16.75;11.95;;;;;;;15.93;100.00;100616.16;5203551;28;20117;-73
2022/08/16 00:15:48;;;;;;;102.15;13.93;;;;;;;15.92;100.00;100610.97;5202842;28;20391;-73
2022/08/16 00:18:19;;;;;;;13.40;8.98;;;;;;;15.84;100.00;100614.69;5203368;28;20486;-73
2022/08/16 00:20:49;;;;;;;16.35;11.35;;;;;;;15.83;100.00;100613.03;5203517;28;20033;-72
2022/08/16 00:23:20;;;;;;;14.55;9.20;;;;;;;15.87;100.00;100622.41;5203609;28;20111;-72
2022/08/16 00:25:50;;;;;;;16.40;10.75;;;;;;;15.81;100.00;100617.81;5203033;28;20079;-72
2022/08/16 00:28:22;;;;;;;19.98;11.45;;;;;;;15.83;100.00;100617.63;5203031;28;20017;-73
2022/08/16 00:30:53;;;;;;;15.27;10.05;;;;;;;15.88;100.00;100615.13;5203445;28;20372;-73
2022/08/16 00:33:23;;;;;;;13.18;9.20;;;;;;;15.90;100.00;100613.03;5202889;28;20036;-72
2022/08/16 00:35:54;;;;;;;16.25;9.82;;;;;;;15.90;100.00;100615.75;5202306;28;20060;-72
2022/08/16 00:38:24;;;;;;;18.75;11.05;;;;;;;15.93;100.00;100618.03;5203203;28;20021;-73
2022/08/16 00:40:55;;;;;;;17.45;11.75;;;;;;;15.94;100.00;100622.41;5204096;28;20036;-73
2022/08/16 00:43:33;;;;;;;15.80;11.05;;;;;;;15.93;100.00;100620.75;5203519;28;20056;-73
2022/08/16 00:46:13;;;;;;;15.25;10.70;;;;;;;15.89;100.00;100612.22;5202446;28;20025;-72
2022/08/16 00:48:44;;;;;;;16.15;10.27;;;;;;;15.89;100.00;100617.63;5206903;28;20128;-72
2022/08/16 00:51:15;;;;;;;24.95;12.60;;;;;;;15.92;100.00;100610.97;5203203;28;20491;-72
2022/08/16 00:53:47;;;;;;;15.77;9.05;;;;;;;15.90;100.00;100608.47;5202965;28;20449;-72
2022/08/16 00:56:22;;;;;;;15.70;10.23;;;;;;;15.90;100.00;100611.16;5202051;28;20082;-74
2022/08/16 00:58:53;;;;;;;14.45;11.32;;;;;;;15.88;100.00;100607.00;5202837;28;20028;-72
2022/08/16 01:01:23;;;;;;;12.30;8.95;;;;;;;15.82;100.00;100603.25;5203176;28;20483;-72
2022/08/16 01:03:54;;;;;;;15.20;8.55;;;;;;;15.78;100.00;100613.66;5193231;28;20076;-72
2022/08/16 01:06:25;;;;;;;22.05;9.20;;;;;;;15.73;100.00;100613.44;5202227;28;20021;-72
2022/08/16 01:08:57;;;;;;;26.20;10.25;;;;;;;15.70;100.00;100616.53;5202999;28;20037;-72
2022/08/16 01:11:28;;;;;;;74.60;11.70;;;;;;;15.64;100.00;100614.66;5203396;28;20025;-72
2022/08/16 01:14:09;;;;;;;13.70;9.55;;;;;;;15.55;100.00;100613.97;5201988;28;20029;-74
2022/08/16 01:16:41;;;;;;;11.93;8.65;;;;;;;15.50;100.00;100618.34;5206204;28;20084;-74
2022/08/16 01:19:25;;;;;;;7.70;5.72;;;;;;;15.47;100.00;100616.91;5206588;28;20087;-73
2022/08/16 01:22:00;;;;;;;11.50;8.23;;;;;;;15.45;100.00;100615.41;5207135;28;20104;-73
2022/08/16 01:24:34;;;;;;;16.17;10.95;;;;;;;15.43;100.00;100617.50;5206646;28;20033;-73
2022/08/16 01:27:11;;;;;;;13.40;9.88;;;;;;;15.46;100.00;100611.66;5207136;28;20029;-72
2022/08/16 01:30:02;;;;;;;15.35;9.38;;;;;;;15.46;100.00;100614.38;5191583;28;20030;-72
2022/08/16 01:32:37;;;;;;;14.00;9.07;;;;;;;15.43;100.00;100617.50;5197749;28;20108;-72
2022/08/16 01:35:13;;;;;;;8.32;6.53;;;;;;;15.42;100.00;100615.84;5205816;28;20498;-71
2022/08/16 01:37:49;;;;;;;19.15;12.25;;;;;;;15.39;100.00;100617.06;5206464;28;20033;-70
2022/08/16 01:40:28;;;;;;;20.80;12.80;;;;;;;15.39;100.00;100624.34;5197639;28;20472;-71
2022/08/16 01:42:59;;;;;;;15.20;10.20;;;;;;;15.33;100.00;100627.88;5203147;28;20083;-72
2022/08/16 01:45:30;;;;;;;19.13;12.52;;;;;;;15.30;100.00;100631.78;5205987;28;20108;-71
2022/08/16 01:48:01;;;;;;;18.58;12.15;;;;;;;15.29;100.00;100627.44;5206343;28;20140;-71
2022/08/16 01:50:32;;;;;;;21.65;12.23;;;;;;;15.27;100.00;100634.91;5206190;28;20452;-72
2022/08/16 01:53:03;;;;;;;17.35;10.50;;;;;;;15.24;100.00;100628.03;5204903;28;20064;-71
2022/08/16 01:55:49;;;;;;;17.25;10.88;;;;;;;15.22;100.00;100632.81;5205949;28;20021;-71
2022/08/16 01:58:21;;;;;;;16.38;9.93;;;;;;;15.20;100.00;100632.16;5206182;28;20356;-72
2022/08/16 02:00:58;;;;;;;14.20;7.93;;;;;;;15.18;100.00;100628.00;5205847;28;20029;-72
2022/08/16 02:03:29;;;;;;;13.63;8.52;;;;;;;15.16;100.00;100630.06;5206062;28;20033;-72
2022/08/16 02:06:03;;;;;;;8.70;6.88;;;;;;;15.13;100.00;100631.31;5205612;28;20108;-72
2022/08/16 02:08:34;;;;;;;54.60;8.55;;;;;;;15.09;100.00;100631.91;5205857;28;20152;-72
2022/08/16 02:11:12;;;;;;;15.20;9.35;;;;;;;15.03;100.00;100630.84;5205921;28;20100;-72
2022/08/16 02:13:43;;;;;;;13.57;7.88;;;;;;;14.98;100.00;100628.75;5206106;28;20060;-72
2022/08/16 02:16:13;;;;;;;17.73;11.55;;;;;;;14.95;100.00;100625.63;5205584;28;20155;-71
2022/08/16 02:18:48;;;;;;;;;;;;;;;14.94;100.00;100624.78;5206251;28;20125;-71
2022/08/16 02:21:19;;;;;;;13.35;9.48;;;;;;;14.95;100.00;100620.22;5205871;28;20007;-73
2022/08/16 02:23:50;;;;;;;22.08;10.43;;;;;;;14.95;100.00;100615.63;5205004;28;20026;-72
2022/08/16 02:26:21;;;;;;;18.02;10.00;;;;;;;14.93;100.00;100628.53;5205400;28;20395;-72
2022/08/16 02:28:52;;;;;;;16.42;11.82;;;;;;;14.95;100.00;100620.22;5205834;28;20025;-72
2022/08/16 02:31:23;;;;;;;9.88;7.45;;;;;;;14.96;100.00;100621.88;5204397;28;20048;-71
2022/08/16 02:33:53;;;;;;;12.65;8.30;;;;;;;14.96;100.00;100614.63;5205463;28;20076;-72
2022/08/16 02:36:24;;;;;;;11.63;6.88;;;;;;;14.95;100.00;100614.81;5204445;28;20555;-72
2022/08/16 02:38:54;;;;;;;9.95;6.47;;;;;;;14.91;100.00;100614.41;5204256;28;20021;-72
2022/08/16 02:41:25;;;;;;;7.32;5.35;;;;;;;14.87;100.00;100615.81;5205767;28;20026;-71
2022/08/16 02:43:56;;;;;;;8.23;6.15;;;;;;;14.85;100.00;100620.56;5205491;28;20021;-71
2022/08/16 02:46:26;;;;;;;12.23;8.65;;;;;;;14.82;100.00;100620.16;5204879;28;20025;-71
2022/08/16 02:48:57;;;;;;;14.90;10.10;;;;;;;14.79;100.00;100621.38;5209124;28;20052;-71
2022/08/16 02:51:27;;;;;;;15.35;10.13;;;;;;;14.79;100.00;100620.53;5205474;28;20101;-72
2022/08/16 02:53:58;;;;;;;13.52;9.25;;;;;;;14.76;100.00;100625.31;5204992;28;20025;-72
2022/08/16 02:56:29;;;;;;;10.23;6.82;;;;;;;14.77;100.00;100624.28;5195361;28;20028;-72
2022/08/16 02:59:00;;;;;;;11.80;7.25;;;;;;;14.77;100.00;100624.28;5199758;28;20136;-70
2022/08/16 03:01:32;;;;;;;16.77;9.63;;;;;;;14.80;100.00;100622.22;5205460;28;20025;-71
2022/08/16 03:04:05;;;;;;;11.23;7.75;;;;;;;14.80;100.00;100622.22;5222675;28;20499;-71
2022/08/16 03:06:35;;;;;;;13.00;9.10;;;;;;;14.78;100.00;100619.72;5204660;28;20029;-71
2022/08/16 03:09:06;;;;;;;13.63;7.63;;;;;;;14.77;100.00;100623.47;5204715;28;20021;-71
2022/08/16 03:11:37;;;;;;;10.93;7.57;;;;;;;14.75;100.00;100618.22;5204265;28;20040;-70
2022/08/16 03:14:07;;;;;;;16.35;9.85;;;;;;;14.75;100.00;100620.09;5204233;28;20027;-71
2022/08/16 03:16:38;;;;;;;21.98;12.45;;;;;;;14.75;100.00;100607.44;5204884;28;20029;-71
2022/08/16 03:19:09;;;;;;;19.25;11.40;;;;;;;14.76;100.00;100619.94;5204632;28;20048;-71
2022/08/16 03:21:39;;;;;;;16.35;9.55;;;;;;;14.76;100.00;100609.13;5204810;28;20025;-71
2022/08/16 03:24:10;;;;;;;14.70;8.93;;;;;;;14.75;100.00;100607.44;5204082;28;20018;-71
2022/08/16 03:26:41;;;;;;;16.73;9.90;;;;;;;14.75;100.00;100610.13;5204642;28;20035;-71
2022/08/16 03:29:12;;;;;;;16.38;9.75;;;;;;;14.76;100.00;100609.13;5204322;28;20414;-71
2022/08/16 03:31:42;;;;;;;19.02;11.93;;;;;;;14.77;100.00;100610.78;5204284;28;20480;-71
2022/08/16 03:34:13;;;;;;;21.50;13.98;;;;;;;14.75;100.00;100612.00;5202976;28;20034;-71
2022/08/16 03:36:43;;;;;;;25.50;15.40;;;;;;;14.75;100.00;100607.44;5203520;28;20029;-71
2022/08/16 03:39:14;;;;;;;25.55;15.43;;;;;;;14.76;100.00;100614.53;5204276;28;20022;-71
2022/08/16 03:41:44;;;;;;;30.92;19.08;;;;;;;14.75;100.00;100623.63;5204024;28;20117;-71
2022/08/16 03:44:15;;;;;;;28.55;16.65;;;;;;;14.74;100.00;100618.44;5203477;28;20031;-71
2022/08/16 03:46:46;;;;;;;22.83;15.57;;;;;;;14.74;100.00;100629.25;5204087;28;20021;-71
2022/08/16 03:49:16;;;;;;;24.52;14.60;;;;;;;14.78;100.00;100625.13;5203449;28;20031;-71
2022/08/16 03:51:47;;;;;;;27.73;17.00;;;;;;;14.75;100.00;100623.63;5204220;28;20045;-71
2022/08/16 03:54:17;;;;;;;30.50;18.95;;;;;;;14.77;100.00;100626.16;5203178;28;20022;-71
2022/08/16 03:56:48;;;;;;;25.40;17.15;;;;;;;14.83;100.00;100632.63;5192339;28;20030;-71
2022/08/16 03:59:19;;;;;;;26.88;15.88;;;;;;;14.81;100.00;100629.28;5196665;28;20018;-71
2022/08/16 04:01:49;;;;;;;21.08;11.95;;;;;;;14.75;100.00;100630.91;5194026;28;20061;-71
2022/08/16 04:04:20;;;;;;;14.68;11.00;;;;;;;14.70;100.00;100626.09;5192659;28;20021;-71
2022/08/16 04:06:50;;;;;;;15.70;10.57;;;;;;;14.68;100.00;100638.97;5203913;28;20030;-71
2022/08/16 04:09:21;;;;;;;17.30;12.23;;;;;;;14.69;100.00;100632.53;5202658;28;20032;-71
2022/08/16 04:11:51;;;;;;;21.05;12.65;;;;;;;14.72;100.00;100637.56;5203725;28;20100;-71
2022/08/16 04:14:22;;;;;;;17.73;11.90;;;;;;;14.73;100.00;100632.97;5202795;28;20449;-70
2022/08/16 04:16:52;;;;;;;17.95;12.38;;;;;;;14.71;100.00;100635.88;5203891;28;20030;-71
2022/08/16 04:19:24;;;;;;;22.40;13.73;;;;;;;14.71;100.00;100649.38;5203657;28;20021;-71
2022/08/16 04:21:55;;;;;;;16.02;11.23;;;;;;;14.68;100.00;100652.47;5203410;28;20025;-71
2022/08/16 04:24:25;;;;;;;20.52;13.10;;;;;;;14.68;100.00;100659.75;5203096;28;20022;-71
2022/08/16 04:26:56;;;;;;;17.42;12.05;;;;;;;14.66;100.00;100664.50;5203506;28;20033;-71
2022/08/16 04:29:27;;;;;;;14.57;10.68;;;;;;;14.67;100.00;100664.31;5203516;28;20033;-71
2022/08/16 04:31:58;;;;;;;17.92;12.77;;;;;;;14.65;100.00;100652.84;5203006;28;20064;-71
2022/08/16 04:34:32;;;;;;;26.02;15.82;;;;;;;14.66;100.00;100651.00;5202959;28;20022;-71
2022/08/16 04:37:03;;;;;;;18.88;12.35;;;;;;;14.65;100.00;100655.56;5203061;28;20108;-71
2022/08/16 04:39:35;;;;;;;26.48;16.88;;;;;;;14.66;100.00;100649.16;5203320;28;20104;-71
2022/08/16 04:42:06;;;;;;;24.23;15.20;;;;;;;14.64;100.00;100648.50;5204020;28;20404;-71
2022/08/16 04:44:36;;;;;;;22.00;14.32;;;;;;;14.65;100.00;100652.84;5202883;28;20060;-71
2022/08/16 04:47:07;;;;;;;22.45;14.57;;;;;;;14.67;100.00;100660.78;5206205;28;20021;-71
2022/08/16 04:49:39;;;;;;;26.10;15.82;;;;;;;14.67;100.00;100661.63;5206715;28;20302;-71
2022/08/16 04:52:10;;;;;;;29.42;15.55;;;;;;;14.68;100.00;100673.25;5207300;28;20052;-71
2022/08/16 04:54:41;;;;;;;23.35;15.32;;;;;;;14.66;100.00;100668.06;5207070;28;20049;-71
2022/08/16 04:57:11;;;;;;;21.38;15.40;;;;;;;14.69;100.00;100666.81;5207366;28;20036;-71
2022/08/16 04:59:42;;;;;;;25.25;15.55;;;;;;;14.73;100.00;100670.78;5207323;28;20025;-71
2022/08/16 05:02:12;;;;;;;21.90;14.15;;;;;;;14.73;100.00;100668.91;5205635;28;20479;-71
2022/08/16 05:04:43;;;;;;;24.15;15.10;;;;;;;14.78;100.00;100676.44;5196840;28;20022;-71
2022/08/16 05:07:13;;;;;;;23.88;13.93;;;;;;;14.83;100.00;100689.34;5207290;28;20035;-71
2022/08/16 05:09:44;;;;;;;23.80;14.93;;;;;;;14.83;100.00;100692.88;5207106;28;20021;-71
2022/08/16 05:12:14;;;;;;;28.13;17.33;;;;;;;14.86;100.00;100697.03;5207274;28;20021;-71
2022/08/16 05:14:45;;;;;;;31.70;17.40;;;;;;;14.88;100.00;100694.97;5206285;28;20036;-71
2022/08/16 05:17:15;;;;;;;23.55;15.20;;;;;;;14.91;100.00;100697.25;5207043;28;20467;-70
2022/08/16 05:19:46;;;;;;;27.58;16.45;;;;;;;14.94;100.00;100699.59;5207015;28;20036;-71
2022/08/16 05:22:16;;;;;;;25.05;15.68;;;;;;;14.99;100.00;100702.53;5207016;28;20315;-71
2022/08/16 05:24:48;;;;;;;24.25;16.20;;;;;;;15.03;100.00;100710.03;5206320;28;20021;-71
2022/08/16 05:27:18;;;;;;;18.67;13.25;;;;;;;15.06;100.00;100706.13;5198473;28;20032;-71
2022/08/16 05:29:49;;;;;;;24.08;15.70;;;;;;;15.14;100.00;100697.00;5201749;28;20029;-71
2022/08/16 05:32:19;;;;;;;23.90;16.10;;;;;;;15.28;100.00;100693.34;5206736;28;20115;-71
2022/08/16 05:34:50;;;;;;;26.20;17.60;;;;;;;15.49;100.00;100695.09;5205814;28;20087;-70
2022/08/16 05:37:23;;;;;;;30.35;18.55;;;;;;;15.67;100.00;100695.41;5206472;28;20047;-71
2022/08/16 05:39:53;;;;;;;26.20;16.40;;;;;;;15.88;100.00;100702.53;5206639;28;20120;-71
2022/08/16 05:42:24;;;;;;;27.60;16.80;;;;;;;16.05;100.00;100698.38;5206831;28;20017;-70
2022/08/16 05:44:54;;;;;;;27.75;16.48;;;;;;;16.24;100.00;100696.75;5206222;28;20029;-71
2022/08/16 05:47:25;;;;;;;23.83;16.38;;;;;;;16.43;100.00;100696.97;5201696;28;20021;-71
2022/08/16 05:49:55;;;;;;;23.33;16.35;;;;;;;16.59;100.00;100699.25;5206629;28;20061;-71
2022/08/16 05:52:26;;;;;;;25.50;16.55;;;;;;;16.80;100.00;100701.75;5206067;28;20017;-71
2022/08/16 05:54:56;;;;;;;25.65;16.10;;;;;;;17.00;100.00;100699.00;5205977;28;20029;-71
2022/08/16 05:57:27;;;;;;;25.13;15.20;;;;;;;17.45;100.00;100709.09;5204916;28;20025;-71
2022/08/16 05:59:58;;;;;;;20.52;14.32;;;;;;;17.97;100.00;100707.19;5205060;28;20471;-71
2022/08/16 06:02:31;;;;;;;20.10;13.68;;;;;;;18.85;100.00;100709.88;5205250;28;20017;-71
2022/08/16 06:05:03;;;;;;;19.30;13.15;;;;;;;19.63;100.00;100710.06;5196770;28;20029;-72
2022/08/16 06:07:34;;;;;;;17.13;11.80;;;;;;;20.33;100.00;100706.78;5205866;28;20475;-71
2022/08/16 06:10:06;;;;;;;14.95;10.98;;;;;;;20.98;100.00;100705.03;5205961;28;20033;-71
2022/08/16 06:12:38;;;;;;;18.73;10.85;;;;;;;21.42;100.00;100707.13;5206129;28;20406;-71
2022/08/16 06:15:12;;;;;;;12.50;10.93;;;;;;;21.90;100.00;100711.38;5205176;28;20033;-71
2022/08/16 06:17:43;;;;;;;14.77;10.32;;;;;;;22.15;100.00;100711.03;5205933;28;20026;-72
2022/08/16 06:20:17;;;;;;;14.85;10.52;;;;;;;22.53;100.00;100714.94;5205724;28;20048;-72
2022/08/16 06:22:49;;;;;;;14.20;9.60;;;;;;;22.79;100.00;100718.91;5206182;28;20025;-71
2022/08/16 06:25:19;;;;;;;16.10;10.23;;;;;;;22.89;100.00;100716.38;5205139;28;20495;-72
2022/08/16 06:27:51;;;;;;;16.33;9.98;;;;;;;23.17;100.00;100712.66;5205942;28;20124;-72
2022/08/16 06:30:22;;;;;;;14.38;9.70;;;;;;;23.44;100.00;100715.47;5205222;28;20025;-72
2022/08/16 06:32:53;;;;;;;15.57;10.05;;;;;;;23.59;100.00;100719.47;5205651;28;20032;-72
2022/08/16 06:35:23;;;;;;;16.02;10.90;;;;;;;23.58;100.00;100726.03;5205081;28;20021;-71
2022/08/16 06:37:54;;;;;;;15.05;9.43;;;;;;;23.86;100.00;100725.88;5205173;28;20033;-71
2022/08/16 06:40:24;;;;;;;18.40;11.20;;;;;;;23.93;100.00;100723.75;5205670;28;20514;-71
2022/08/16 06:42:55;;;;;;;12.32;9.30;;;;;;;24.17;100.00;100729.75;5205297;28;20029;-71
2022/08/16 06:45:25;;;;;;;15.07;9.93;;;;;;;24.34;100.00;100721.38;5204996;28;20025;-71
2022/08/16 06:47:56;;;;;;;17.52;10.40;;;;;;;24.33;100.00;100724.41;5204921;28;20534;-72
2022/08/16 06:50:26;;;;;;;14.65;9.40;;;;;;;24.90;100.00;100726.50;5205117;28;20037;-72
2022/08/16 06:52:57;;;;;;;14.90;10.10;;;;;;;25.02;100.00;100722.50;5204838;28;20123;-71
2022/08/16 06:55:29;;;;;;;13.00;9.70;;;;;;;25.39;100.00;100724.34;5204797;28;20479;-72
2022/08/16 06:58:01;;;;;;;12.50;9.40;;;;;;;25.82;100.00;100733.34;5191946;28;20026;-71
2022/08/16 07:00:31;;;;;;;12.98;10.00;;;;;;;25.54;100.00;100721.69;5204714;28;20052;-71
2022/08/16 07:03:03;;;;;;;17.30;9.77;;;;;;;25.69;100.00;100720.09;5198022;28;20026;-72
2022/08/16 07:05:33;;;;;;;19.75;10.10;;;;;;;25.58;100.00;100717.31;5199634;28;20025;-72
2022/08/16 07:08:04;;;;;;;14.98;8.50;;;;;;;26.00;100.00;100716.34;5205200;28;20078;-72
2022/08/16 07:10:34;;;;;;;13.18;9.25;;;;;;;26.12;100.00;100729.03;5205044;28;20065;-72
2022/08/16 07:13:05;;;;;;;16.00;8.30;;;;;;;26.48;100.00;100727.97;5203720;28;20443;-72
2022/08/16 07:15:35;;;;;;;16.85;9.35;;;;;;;27.05;100.00;100734.25;5203826;28;20029;-72
2022/08/16 07:18:06;;;;;;;19.00;8.75;;;;;;;27.08;100.00;100734.56;5204741;28;20102;-72
2022/08/16 07:20:38;;;;;;;21.55;9.32;;;;;;;27.18;100.00;100743.91;5204501;28;20108;-72
2022/08/16 07:23:08;;;;;;;17.38;8.38;;;;;;;27.20;100.00;100748.00;5204482;28;20479;-72
2022/08/16 07:25:39;;;;;;;13.57;8.45;;;;;;;27.74;100.00;100755.56;5204243;28;20025;-72
2022/08/16 07:28:13;;;;;;;12.18;8.10;;;;;;;27.97;99.59;100756.00;5203951;28;20116;-72
2022/08/16 07:30:45;;;;;;;15.13;8.07;;;;;;;27.95;96.07;100764.53;5204620;28;20025;-72
2022/08/16 07:33:16;;;;;;;11.38;7.38;;;;;;;27.81;100.00;100766.25;5204444;28;20496;-72
2022/08/16 07:35:47;;;;;;;12.93;7.70;;;;;;;27.87;100.00;100771.50;5204192;28;20033;-72
2022/08/16 07:38:17;;;;;;;9.77;6.68;;;;;;;27.63;98.12;100764.94;5203728;28;20021;-72
2022/08/16 07:40:48;;;;;;;17.10;7.80;;;;;;;28.04;97.37;100768.34;5204178;28;20479;-72
2022/08/16 07:43:20;;;;;;;13.50;7.57;;;;;;;28.03;97.77;100763.94;5204205;28;20104;-72
2022/08/16 07:45:50;;;;;;;12.95;8.40;;;;;;;28.30;87.84;100762.66;5203616;28;20025;-72
2022/08/16 07:48:21;;;;;;;10.68;7.05;;;;;;;28.78;87.99;100768.41;5203618;28;20029;-72
2022/08/16 07:50:53;;;;;;;17.13;8.10;;;;;;;28.95;87.20;100759.72;5204293;28;20104;-72
2022/08/16 07:53:23;;;;;;;14.23;7.35;;;;;;;28.88;87.44;100760.03;5204009;28;20034;-72
2022/08/16 07:55:54;;;;;;;11.60;7.05;;;;;;;29.07;86.19;100760.97;5203478;28;20017;-72
2022/08/16 07:58:25;;;;;;;13.52;7.63;;;;;;;29.09;79.78;100761.50;5203574;28;20022;-72
2022/08/16 08:00:56;;;;;;;12.43;6.85;;;;;;;29.01;83.87;100762.13;5204088;28;20021;-72
2022/08/16 08:03:27;;;;;;;11.95;6.32;;;;;;;29.13;80.48;100767.28;5194649;28;20502;-72
2022/08/16 08:05:58;;;;;;;14.65;6.50;;;;;;;28.81;77.56;100762.28;5201839;28;20033;-72
2022/08/16 08:08:29;;;;;;;14.95;6.00;;;;;;;28.36;80.16;100769.81;5203997;28;20049;-74
2022/08/16 08:10:59;;;;;;;10.68;5.78;;;;;;;28.11;82.98;100773.53;5203867;28;20364;-71
2022/08/16 08:13:29;;;;;;;12.88;6.55;;;;;;;27.97;89.68;100776.13;5203522;28;20025;-74
2022/08/16 08:16:00;;;;;;;11.55;6.47;;;;;;;28.25;83.31;100776.50;5202885;28;20091;-72
2022/08/16 08:18:31;;;;;;;9.88;6.00;;;;;;;28.81;85.16;100776.09;5203587;28;20048;-72
2022/08/16 08:21:01;;;;;;;12.70;6.10;;;;;;;29.18;79.12;100771.91;5202192;28;20100;-72
2022/08/16 08:23:35;;;;;;;12.23;5.55;;;;;;;29.68;74.08;100773.31;5203555;28;20053;-73
2022/08/16 08:26:06;;;;;;;9.15;6.05;;;;;;;29.93;76.00;100780.44;5203150;28;20103;-73
2022/08/16 08:28:37;;;;;;;7.75;5.97;;;;;;;30.35;71.19;100775.97;5202993;28;20125;-73
2022/08/16 08:31:08;;;;;;;13.70;6.10;;;;;;;30.44;69.60;100783.31;5203358;28;20036;-73
2022/08/16 08:33:38;;;;;;;15.50;5.68;;;;;;;30.15;67.77;100777.09;5203035;28;20031;-73
2022/08/16 08:36:14;;;;;;;12.10;5.35;;;;;;;29.64;69.72;100775.00;5203043;28;20426;-73
2022/08/16 08:38:45;;;;;;;10.23;5.35;;;;;;;29.34;70.12;100778.91;5203148;28;20494;-73
2022/08/16 08:41:15;;;;;;;11.60;5.90;;;;;;;29.80;72.39;100778.38;5203328;28;20308;-73
2022/08/16 08:43:47;;;;;;;13.80;5.57;;;;;;;30.12;68.91;100783.19;5203495;28;20506;-73
2022/08/16 08:46:17;;;;;;;15.93;5.20;;;;;;;30.23;67.30;100783.94;5202973;28;20616;-73
2022/08/16 08:48:50;;;;;;;10.00;4.72;;;;;;;29.78;67.03;100788.94;5205576;28;20029;-73
2022/08/16 08:51:21;;;;;;;7.43;4.78;;;;;;;30.17;68.36;100785.91;5202892;28;20437;-73
2022/08/16 08:53:52;;;;;;;14.15;5.53;;;;;;;30.28;61.94;100786.63;5203275;28;20025;-73
2022/08/16 08:56:22;;;;;;;11.52;5.35;;;;;;;29.60;62.80;100787.75;5203013;28;20055;-73
2022/08/16 08:58:53;;;;;;;11.00;5.78;;;;;;;29.55;63.79;100785.88;5202939;28;20390;-73
2022/08/16 09:01:29;;;;;;;15.73;5.88;;;;;;;29.01;66.90;100788.91;5203286;28;20037;-73
2022/08/16 09:04:02;;;;;;;8.45;5.00;;;;;;;29.00;66.15;100795.56;5192530;28;20017;-73
2022/08/16 09:06:34;;;;;;;11.20;5.28;;;;;;;29.27;66.60;100782.03;5203213;28;20029;-73
2022/08/16 09:09:05;;;;;;;6.75;4.05;;;;;;;30.02;65.45;100788.88;5203367;28;20295;-73
2022/08/16 09:11:36;;;;;;;11.68;4.88;;;;;;;30.59;61.87;100792.50;5203163;28;20029;-73
2022/08/16 09:14:07;;;;;;;9.80;4.72;;;;;;;30.87;60.32;100796.19;5196117;28;20488;-73
2022/08/16 09:16:38;;;;;;;8.50;4.97;;;;;;;30.43;62.40;100801.03;5201993;28;20033;-73
2022/08/16 09:19:08;;;;;;;14.48;4.70;;;;;;;30.62;62.66;100811.25;5203017;28;20075;-73
2022/08/16 09:21:39;;;;;;;8.75;4.50;;;;;;;30.21;58.51;100805.50;5203649;28;20021;-73
2022/08/16 09:24:09;;;;;;;9.10;4.65;;;;;;;30.46;62.16;100812.63;5203374;28;20028;-73
2022/08/16 09:26:40;;;;;;;7.95;4.88;;;;;;;30.32;59.18;100812.53;5203185;28;20036;-73
2022/08/16 09:29:11;;;;;;;10.63;4.63;;;;;;;30.61;58.01;100813.19;5203277;28;20036;-72
2022/08/16 09:31:42;;;;;;;12.35;4.55;;;;;;;30.65;57.70;100813.44;5202999;28;20519;-72
2022/08/16 09:34:12;;;;;;;8.00;5.00;;;;;;;30.52;59.00;100815.00;5205158;28;20056;-72
2022/08/16 09:36:43;;;;;;;11.43;4.90;;;;;;;30.73;59.20;100809.19;5206847;28;20029;-72
2022/08/16 09:39:14;;;;;;;15.52;4.55;;;;;;;29.96;58.82;100812.19;5206294;28;20026;-72
2022/08/16 09:41:48;;;;;;;6.97;4.53;;;;;;;30.57;60.77;100806.63;5206884;28;20418;-72
2022/08/16 09:44:20;;;;;;;16.08;5.38;;;;;;;30.97;58.00;100801.56;5205988;28;20029;-72
2022/08/16 09:46:52;;;;;;;9.40;4.68;;;;;;;30.41;56.44;100799.69;5206598;28;20075;-72
2022/08/16 09:49:25;;;;;;;9.75;4.45;;;;;;;30.21;58.73;100808.28;5206615;28;20479;-72
2022/08/16 09:51:55;;;;;;;8.07;4.20;;;;;;;30.95;55.54;100798.28;5205869;28;20356;-73
2022/08/16 09:54:26;;;;;;;6.50;4.20;;;;;;;31.43;54.39;100800.75;5202517;28;20021;-72
2022/08/16 09:56:57;;;;;;;11.07;4.85;;;;;;;31.20;56.51;100813.63;5206137;28;20026;-72
2022/08/16 09:59:27;;;;;;;9.52;4.05;;;;;;;31.74;53.31;100803.72;5206128;28;20032;-72
2022/08/16 10:01:59;;;;;;;8.57;5.10;;;;;;;31.70;55.14;100811.81;5206265;28;20517;-72
2022/08/16 10:04:30;;;;;;;9.10;4.88;;;;;;;31.85;52.33;100807.94;5195360;28;20041;-72
2022/08/16 10:07:02;;;;;;;9.65;4.07;;;;;;;32.28;49.62;100803.94;5206027;28;20021;-73
2022/08/16 10:09:33;;;;;;;8.43;4.30;;;;;;;31.66;52.64;100809.97;5206431;28;20116;-72
2022/08/16 10:14:52;;;;;;;9.77;4.53;;;;;;;31.14;54.00;100818.44;5205242;28;20116;-72
2022/08/16 10:17:23;;;;;;;8.05;4.18;;;;;;;31.64;50.73;100815.84;5205800;28;20026;-72
2022/08/16 10:19:54;;;;;;;8.15;4.45;;;;;;;31.28;51.10;100799.09;5205602;28;20044;-72
2022/08/16 10:22:25;;;;;;;11.65;4.40;;;;;;;30.97;54.50;100806.28;5206160;28;20076;-72
2022/08/16 10:24:56;;;;;;;9.55;3.97;;;;;;;30.71;53.78;100801.16;5203679;28;20026;-72
2022/08/16 10:27:27;;;;;;;11.27;5.65;;;;;;;30.17;53.98;100806.13;5206097;28;20106;-73
2022/08/16 10:29:57;;;;;;;10.55;4.80;;;;;;;29.58;57.12;100804.66;5206345;28;20032;-72
2022/08/16 10:32:29;;;;;;;8.40;5.22;;;;;;;29.38;58.39;100805.66;5206431;28;20036;-73
2022/08/16 10:35:00;;;;;;;10.55;4.82;;;;;;;29.12;58.80;100799.59;5205040;28;20033;-72
2022/08/16 10:37:31;;;;;;;9.07;5.03;;;;;;;29.04;58.19;100805.75;5205418;28;20027;-72
2022/08/16 10:40:05;;;;;;;7.63;4.57;;;;;;;28.77;60.24;100805.41;5206295;28;20025;-72
2022/08/16 10:42:35;;;;;;;13.43;5.17;;;;;;;28.35;61.91;100810.38;5205508;28;20021;-73
2022/08/16 10:45:07;;;;;;;24.52;4.72;;;;;;;28.29;65.81;100813.44;5204449;28;20026;-72
2022/08/16 10:47:37;;;;;;;7.57;4.25;;;;;;;28.26;64.31;100820.34;5209141;28;20056;-72
2022/08/16 10:50:09;;;;;;;13.05;4.90;;;;;;;28.11;64.42;100817.66;5204964;28;20113;-72
2022/08/16 10:52:39;;;;;;;9.13;4.53;;;;;;;28.03;67.62;100812.75;5204954;28;20021;-72
2022/08/16 10:55:11;;;;;;;8.30;5.05;;;;;;;28.09;65.71;100809.69;5204712;28;20374;-73
2022/08/16 10:57:41;;;;;;;7.85;4.78;;;;;;;28.12;66.06;100809.13;5203935;28;20029;-72
2022/08/16 11:00:16;;;;;;;8.52;5.00;;;;;;;28.12;64.72;100813.81;5205081;28;20041;-72
2022/08/16 11:02:46;;;;;;;8.18;5.43;;;;;;;28.06;66.64;100820.44;5201360;28;20033;-72
2022/08/16 11:05:17;;;;;;;7.45;4.82;;;;;;;28.22;69.60;100815.69;5197332;28;20040;-72
2022/08/16 11:07:49;;;;;;;16.50;5.15;;;;;;;28.50;66.23;100823.25;5191428;28;20108;-72
2022/08/16 11:10:24;;;;;;;8.60;4.93;;;;;;;29.23;64.70;100822.41;5204580;28;20026;-72
2022/08/16 11:12:55;;;;;;;8.27;4.55;;;;;;;29.62;61.46;100822.31;5204379;28;20040;-72
2022/08/16 11:15:25;;;;;;;9.15;4.25;;;;;;;29.74;63.47;100830.16;5204008;28;20475;-72
2022/08/16 11:17:56;;;;;;;6.45;4.60;;;;;;;30.09;61.88;100825.31;5205094;28;20040;-72
2022/08/16 11:20:27;;;;;;;9.65;4.72;;;;;;;30.37;61.50;100829.91;5204631;28;20475;-72
2022/08/16 11:22:58;;;;;;;12.75;5.95;;;;;;;30.52;60.85;100833.56;5204601;28;20104;-72
2022/08/16 11:25:30;;;;;;;18.13;5.60;;;;;;;30.76;60.02;100826.00;5203592;28;20033;-72
2022/08/16 11:28:01;;;;;;;9.45;5.35;;;;;;;31.00;56.82;100828.66;5204917;28;20017;-72
2022/08/16 11:30:36;;;;;;;9.50;4.93;;;;;;;30.39;56.94;100830.44;5191424;28;20490;-72